sensor_id;sensor_type;location;lat;lon;timestamp;temperature;humidity
54431;DHT22;40342;52.998;5.862;2023-08-17T00:01:34;16.80;99.90
54431;DHT22;40342;52.998;5.862;2023-08-17T00:04:00;16.70;99.90
54431;DHT22;40342;52.998;5.862;2023-08-17T00:06:26;16.70;99.90
54431;DHT22;40342;52.998;5.862;2023-08-17T00:08:51;16.70;99.90
54431;DHT22;40342;52.998;5.862;2023-08-17T00:11:17;16.60;99.90
54431;DHT22;40342;52.998;5.862;2023-08-17T00:13:42;16.60;99.90
54431;DHT22;40342;52.998;5.862;2023-08-17T00:16:08;16.50;99.90
54431;DHT22;40342;52.998;5.862;2023-08-17T00:18:34;16.50;99.90
54431;DHT22;40342;52.998;5.862;2023-08-17T00:20:59;16.40;99.90
54431;DHT22;40342;52.998;5.862;2023-08-17T00:23:25;16.40;99.90
54431;DHT22;40342;52.998;5.862;2023-08-17T00:25:50;16.40;99.90
54431;DHT22;40342;52.998;5.862;2023-08-17T00:28:16;16.30;99.90
54431;DHT22;40342;52.998;5.862;2023-08-17T00:30:42;16.30;99.90
54431;DHT22;40342;52.998;5.862;2023-08-17T00:33:07;16.30;99.90
54431;DHT22;40342;52.998;5.862;2023-08-17T00:35:33;16.30;99.90
54431;DHT22;40342;52.998;5.862;2023-08-17T00:37:59;16.20;99.90
54431;DHT22;40342;52.998;5.862;2023-08-17T00:40:25;16.30;99.90
54431;DHT22;40342;52.998;5.862;2023-08-17T00:42:51;16.20;99.90
54431;DHT22;40342;52.998;5.862;2023-08-17T00:45:18;16.20;99.90
54431;DHT22;40342;52.998;5.862;2023-08-17T00:47:44;16.20;99.90
54431;DHT22;40342;52.998;5.862;2023-08-17T00:50:10;16.10;99.90
54431;DHT22;40342;52.998;5.862;2023-08-17T00:52:37;16.20;99.90
54431;DHT22;40342;52.998;5.862;2023-08-17T00:55:03;16.10;99.90
54431;DHT22;40342;52.998;5.862;2023-08-17T00:57:31;16.10;99.90
54431;DHT22;40342;52.998;5.862;2023-08-17T00:59:57;16.10;99.90
54431;DHT22;40342;52.998;5.862;2023-08-17T01:02:23;16.10;99.90
54431;DHT22;40342;52.998;5.862;2023-08-17T01:04:49;16.10;99.90
54431;DHT22;40342;52.998;5.862;2023-08-17T01:07:15;16.10;99.90
54431;DHT22;40342;52.998;5.862;2023-08-17T01:09:41;16.00;99.90
54431;DHT22;40342;52.998;5.862;2023-08-17T01:12:23;16.00;99.90
54431;DHT22;40342;52.998;5.862;2023-08-17T01:17:30;16.00;99.90
54431;DHT22;40342;52.998;5.862;2023-08-17T01:19:58;15.90;99.90
54431;DHT22;40342;52.998;5.862;2023-08-17T01:22:26;15.80;99.90
54431;DHT22;40342;52.998;5.862;2023-08-17T01:24:55;15.80;99.90
54431;DHT22;40342;52.998;5.862;2023-08-17T01:27:24;15.80;99.90
54431;DHT22;40342;52.998;5.862;2023-08-17T01:29:53;15.80;99.90
54431;DHT22;40342;52.998;5.862;2023-08-17T01:32:30;15.70;99.90
54431;DHT22;40342;52.998;5.862;2023-08-17T01:35:18;15.70;99.90
54431;DHT22;40342;52.998;5.862;2023-08-17T01:37:45;15.70;99.90
54431;DHT22;40342;52.998;5.862;2023-08-17T01:40:12;15.60;99.90
54431;DHT22;40342;52.998;5.862;2023-08-17T01:42:39;15.60;99.90
54431;DHT22;40342;52.998;5.862;2023-08-17T01:45:06;15.60;99.90
54431;DHT22;40342;52.998;5.862;2023-08-17T01:47:31;15.60;99.90
54431;DHT22;40342;52.998;5.862;2023-08-17T01:49:57;15.60;99.90
54431;DHT22;40342;52.998;5.862;2023-08-17T01:52:27;15.50;99.90
54431;DHT22;40342;52.998;5.862;2023-08-17T01:54:53;15.50;99.90
54431;DHT22;40342;52.998;5.862;2023-08-17T01:57:19;15.50;99.90
54431;DHT22;40342;52.998;5.862;2023-08-17T01:59:44;15.50;99.90
54431;DHT22;40342;52.998;5.862;2023-08-17T02:02:10;15.50;99.90
54431;DHT22;40342;52.998;5.862;2023-08-17T02:04:37;15.40;99.90
54431;DHT22;40342;52.998;5.862;2023-08-17T02:07:03;15.50;99.90
54431;DHT22;40342;52.998;5.862;2023-08-17T02:09:28;15.40;99.90
54431;DHT22;40342;52.998;5.862;2023-08-17T02:11:54;15.40;99.90
54431;DHT22;40342;52.998;5.862;2023-08-17T02:14:19;15.40;99.90
54431;DHT22;40342;52.998;5.862;2023-08-17T02:16:45;15.40;99.90
54431;DHT22;40342;52.998;5.862;2023-08-17T02:19:10;15.40;99.90
54431;DHT22;40342;52.998;5.862;2023-08-17T02:21:36;15.40;99.90
54431;DHT22;40342;52.998;5.862;2023-08-17T02:24:02;15.40;99.90
54431;DHT22;40342;52.998;5.862;2023-08-17T02:26:29;15.40;99.90
54431;DHT22;40342;52.998;5.862;2023-08-17T02:28:55;15.40;99.90
54431;DHT22;40342;52.998;5.862;2023-08-17T02:31:20;15.40;99.90
54431;DHT22;40342;52.998;5.862;2023-08-17T02:33:46;15.40;99.90
54431;DHT22;40342;52.998;5.862;2023-08-17T02:36:11;15.40;99.90
54431;DHT22;40342;52.998;5.862;2023-08-17T02:38:37;15.40;99.90
54431;DHT22;40342;52.998;5.862;2023-08-17T02:41:03;15.30;99.90
54431;DHT22;40342;52.998;5.862;2023-08-17T02:43:28;15.30;99.90
54431;DHT22;40342;52.998;5.862;2023-08-17T02:45:54;15.30;99.90
54431;DHT22;40342;52.998;5.862;2023-08-17T02:48:19;15.30;99.90
54431;DHT22;40342;52.998;5.862;2023-08-17T02:50:45;15.40;99.90
54431;DHT22;40342;52.998;5.862;2023-08-17T02:53:10;15.40;99.90
54431;DHT22;40342;52.998;5.862;2023-08-17T02:55:36;15.30;99.90
54431;DHT22;40342;52.998;5.862;2023-08-17T02:58:02;15.40;99.90
54431;DHT22;40342;52.998;5.862;2023-08-17T03:00:28;15.40;99.90
54431;DHT22;40342;52.998;5.862;2023-08-17T03:02:53;15.30;99.90
54431;DHT22;40342;52.998;5.862;2023-08-17T03:05:19;15.20;99.90
54431;DHT22;40342;52.998;5.862;2023-08-17T03:07:45;15.30;99.90
54431;DHT22;40342;52.998;5.862;2023-08-17T03:10:11;15.30;99.90
54431;DHT22;40342;52.998;5.862;2023-08-17T03:12:37;15.30;99.90
54431;DHT22;40342;52.998;5.862;2023-08-17T03:15:05;15.30;99.90
54431;DHT22;40342;52.998;5.862;2023-08-17T03:17:31;15.20;99.90
54431;DHT22;40342;52.998;5.862;2023-08-17T03:19:56;15.20;99.90
54431;DHT22;40342;52.998;5.862;2023-08-17T03:22:24;15.20;99.90
54431;DHT22;40342;52.998;5.862;2023-08-17T03:24:50;15.20;99.90
54431;DHT22;40342;52.998;5.862;2023-08-17T03:27:15;15.20;99.90
54431;DHT22;40342;52.998;5.862;2023-08-17T03:29:41;15.20;99.90
54431;DHT22;40342;52.998;5.862;2023-08-17T03:32:07;15.10;99.90
54431;DHT22;40342;52.998;5.862;2023-08-17T03:34:32;15.10;99.90
54431;DHT22;40342;52.998;5.862;2023-08-17T03:36:58;15.10;99.90
54431;DHT22;40342;52.998;5.862;2023-08-17T03:39:23;15.10;99.90
54431;DHT22;40342;52.998;5.862;2023-08-17T03:41:49;15.10;99.90
54431;DHT22;40342;52.998;5.862;2023-08-17T03:44:14;15.10;99.90
54431;DHT22;40342;52.998;5.862;2023-08-17T03:46:40;15.00;99.90
54431;DHT22;40342;52.998;5.862;2023-08-17T03:49:06;15.00;99.90
54431;DHT22;40342;52.998;5.862;2023-08-17T03:51:32;15.00;99.90
54431;DHT22;40342;52.998;5.862;2023-08-17T03:53:57;15.00;99.90
54431;DHT22;40342;52.998;5.862;2023-08-17T03:56:23;15.00;99.90
54431;DHT22;40342;52.998;5.862;2023-08-17T03:58:50;15.00;99.90
54431;DHT22;40342;52.998;5.862;2023-08-17T04:01:15;15.00;99.90
54431;DHT22;40342;52.998;5.862;2023-08-17T04:03:41;15.00;99.90
54431;DHT22;40342;52.998;5.862;2023-08-17T04:06:07;15.00;99.90
54431;DHT22;40342;52.998;5.862;2023-08-17T04:08:38;15.00;99.90
54431;DHT22;40342;52.998;5.862;2023-08-17T04:11:05;14.90;99.90
54431;DHT22;40342;52.998;5.862;2023-08-17T04:13:31;14.90;99.90
54431;DHT22;40342;52.998;5.862;2023-08-17T04:15:57;14.90;99.90
54431;DHT22;40342;52.998;5.862;2023-08-17T04:18:22;14.90;99.90
54431;DHT22;40342;52.998;5.862;2023-08-17T04:20:48;14.90;99.90
54431;DHT22;40342;52.998;5.862;2023-08-17T04:23:14;14.90;99.90
54431;DHT22;40342;52.998;5.862;2023-08-17T04:25:40;14.90;99.90
54431;DHT22;40342;52.998;5.862;2023-08-17T04:28:06;14.90;99.90
54431;DHT22;40342;52.998;5.862;2023-08-17T04:30:31;14.80;99.90
54431;DHT22;40342;52.998;5.862;2023-08-17T04:32:57;14.80;99.90
54431;DHT22;40342;52.998;5.862;2023-08-17T04:35:22;14.80;99.90
54431;DHT22;40342;52.998;5.862;2023-08-17T04:37:48;14.80;99.90
54431;DHT22;40342;52.998;5.862;2023-08-17T04:40:14;14.80;99.90
54431;DHT22;40342;52.998;5.862;2023-08-17T04:42:40;14.80;99.90
54431;DHT22;40342;52.998;5.862;2023-08-17T04:45:06;14.80;99.90
54431;DHT22;40342;52.998;5.862;2023-08-17T04:47:32;14.80;99.90
54431;DHT22;40342;52.998;5.862;2023-08-17T04:49:57;14.80;99.90
54431;DHT22;40342;52.998;5.862;2023-08-17T04:52:23;14.80;99.90
54431;DHT22;40342;52.998;5.862;2023-08-17T04:54:48;14.80;99.90
54431;DHT22;40342;52.998;5.862;2023-08-17T04:57:14;14.70;99.90
54431;DHT22;40342;52.998;5.862;2023-08-17T04:59:40;14.80;99.90
54431;DHT22;40342;52.998;5.862;2023-08-17T05:02:06;14.70;99.90
54431;DHT22;40342;52.998;5.862;2023-08-17T05:04:31;14.70;99.90
54431;DHT22;40342;52.998;5.862;2023-08-17T05:06:57;14.70;99.90
54431;DHT22;40342;52.998;5.862;2023-08-17T05:09:23;14.70;99.90
54431;DHT22;40342;52.998;5.862;2023-08-17T05:11:48;14.70;99.90
54431;DHT22;40342;52.998;5.862;2023-08-17T05:14:14;14.70;99.90
54431;DHT22;40342;52.998;5.862;2023-08-17T05:16:39;14.70;99.90
54431;DHT22;40342;52.998;5.862;2023-08-17T05:19:05;14.80;99.90
54431;DHT22;40342;52.998;5.862;2023-08-17T05:21:30;14.80;99.90
54431;DHT22;40342;52.998;5.862;2023-08-17T05:23:56;14.80;99.90
54431;DHT22;40342;52.998;5.862;2023-08-17T05:26:22;14.80;99.90
54431;DHT22;40342;52.998;5.862;2023-08-17T05:28:47;14.80;99.90
54431;DHT22;40342;52.998;5.862;2023-08-17T05:31:13;14.90;99.90
54431;DHT22;40342;52.998;5.862;2023-08-17T05:33:39;15.00;99.90
54431;DHT22;40342;52.998;5.862;2023-08-17T05:36:07;15.00;99.90
54431;DHT22;40342;52.998;5.862;2023-08-17T05:38:33;15.00;99.90
54431;DHT22;40342;52.998;5.862;2023-08-17T05:40:59;15.10;99.90
54431;DHT22;40342;52.998;5.862;2023-08-17T05:43:25;15.20;99.90
54431;DHT22;40342;52.998;5.862;2023-08-17T05:45:51;15.20;99.90
54431;DHT22;40342;52.998;5.862;2023-08-17T05:48:19;15.20;99.90
54431;DHT22;40342;52.998;5.862;2023-08-17T05:50:46;15.30;99.90
54431;DHT22;40342;52.998;5.862;2023-08-17T05:53:12;15.40;99.90
54431;DHT22;40342;52.998;5.862;2023-08-17T05:55:37;15.50;99.90
54431;DHT22;40342;52.998;5.862;2023-08-17T05:58:03;15.50;99.90
54431;DHT22;40342;52.998;5.862;2023-08-17T06:00:29;15.60;99.90
54431;DHT22;40342;52.998;5.862;2023-08-17T06:02:56;15.60;99.90
54431;DHT22;40342;52.998;5.862;2023-08-17T06:05:26;15.60;99.90
54431;DHT22;40342;52.998;5.862;2023-08-17T06:07:52;15.70;99.90
54431;DHT22;40342;52.998;5.862;2023-08-17T06:10:18;15.70;99.90
54431;DHT22;40342;52.998;5.862;2023-08-17T06:12:44;15.80;99.90
54431;DHT22;40342;52.998;5.862;2023-08-17T06:15:10;15.80;99.90
54431;DHT22;40342;52.998;5.862;2023-08-17T06:17:35;15.80;99.90
54431;DHT22;40342;52.998;5.862;2023-08-17T06:20:01;15.90;99.90
54431;DHT22;40342;52.998;5.862;2023-08-17T06:22:28;15.90;99.90
54431;DHT22;40342;52.998;5.862;2023-08-17T06:24:53;16.00;99.90
54431;DHT22;40342;52.998;5.862;2023-08-17T06:27:19;16.00;99.90
54431;DHT22;40342;52.998;5.862;2023-08-17T06:29:45;16.10;99.90
54431;DHT22;40342;52.998;5.862;2023-08-17T06:32:10;16.10;99.90
54431;DHT22;40342;52.998;5.862;2023-08-17T06:34:36;16.10;99.90
54431;DHT22;40342;52.998;5.862;2023-08-17T06:37:03;16.20;99.90
54431;DHT22;40342;52.998;5.862;2023-08-17T06:39:28;16.20;99.90
54431;DHT22;40342;52.998;5.862;2023-08-17T06:41:54;16.20;99.90
54431;DHT22;40342;52.998;5.862;2023-08-17T06:44:20;16.30;99.90
54431;DHT22;40342;52.998;5.862;2023-08-17T06:46:46;16.40;99.90
54431;DHT22;40342;52.998;5.862;2023-08-17T06:49:12;16.40;99.90
54431;DHT22;40342;52.998;5.862;2023-08-17T06:51:38;16.40;99.90
54431;DHT22;40342;52.998;5.862;2023-08-17T06:54:04;16.40;99.90
54431;DHT22;40342;52.998;5.862;2023-08-17T06:56:30;16.50;99.90
54431;DHT22;40342;52.998;5.862;2023-08-17T06:58:56;16.50;99.90
54431;DHT22;40342;52.998;5.862;2023-08-17T07:01:22;16.50;99.90
54431;DHT22;40342;52.998;5.862;2023-08-17T07:03:47;16.60;99.90
54431;DHT22;40342;52.998;5.862;2023-08-17T07:06:13;16.60;99.90
54431;DHT22;40342;52.998;5.862;2023-08-17T07:08:38;16.70;99.90
54431;DHT22;40342;52.998;5.862;2023-08-17T07:11:04;16.80;99.90
54431;DHT22;40342;52.998;5.862;2023-08-17T07:13:31;16.80;99.90
54431;DHT22;40342;52.998;5.862;2023-08-17T07:15:57;16.90;99.90
54431;DHT22;40342;52.998;5.862;2023-08-17T07:18:23;16.90;99.90
54431;DHT22;40342;52.998;5.862;2023-08-17T07:20:48;17.00;99.90
54431;DHT22;40342;52.998;5.862;2023-08-17T07:23:15;17.10;99.90
54431;DHT22;40342;52.998;5.862;2023-08-17T07:25:40;17.10;99.90
54431;DHT22;40342;52.998;5.862;2023-08-17T07:28:06;17.10;99.90
54431;DHT22;40342;52.998;5.862;2023-08-17T07:30:31;17.20;99.90
54431;DHT22;40342;52.998;5.862;2023-08-17T07:32:57;17.30;99.90
54431;DHT22;40342;52.998;5.862;2023-08-17T07:35:23;17.30;99.90
54431;DHT22;40342;52.998;5.862;2023-08-17T07:37:48;17.30;99.90
54431;DHT22;40342;52.998;5.862;2023-08-17T07:40:14;17.40;99.90
54431;DHT22;40342;52.998;5.862;2023-08-17T07:42:40;17.40;99.90
54431;DHT22;40342;52.998;5.862;2023-08-17T07:45:06;17.50;99.90
54431;DHT22;40342;52.998;5.862;2023-08-17T07:47:34;17.50;99.90
54431;DHT22;40342;52.998;5.862;2023-08-17T07:50:00;17.50;99.90
54431;DHT22;40342;52.998;5.862;2023-08-17T07:52:25;17.60;99.90
54431;DHT22;40342;52.998;5.862;2023-08-17T07:54:51;17.60;99.90
54431;DHT22;40342;52.998;5.862;2023-08-17T07:57:16;17.60;99.90
54431;DHT22;40342;52.998;5.862;2023-08-17T07:59:42;17.60;99.90
54431;DHT22;40342;52.998;5.862;2023-08-17T08:02:08;17.70;99.90
54431;DHT22;40342;52.998;5.862;2023-08-17T08:04:33;17.70;99.90
54431;DHT22;40342;52.998;5.862;2023-08-17T08:06:59;17.70;99.90
54431;DHT22;40342;52.998;5.862;2023-08-17T08:09:24;17.70;99.90
54431;DHT22;40342;52.998;5.862;2023-08-17T08:11:50;17.70;99.90
54431;DHT22;40342;52.998;5.862;2023-08-17T08:14:16;17.80;99.90
54431;DHT22;40342;52.998;5.862;2023-08-17T08:16:42;17.80;99.90
54431;DHT22;40342;52.998;5.862;2023-08-17T08:19:07;17.90;99.90
54431;DHT22;40342;52.998;5.862;2023-08-17T08:21:33;17.90;99.90
54431;DHT22;40342;52.998;5.862;2023-08-17T08:23:58;17.90;99.90
54431;DHT22;40342;52.998;5.862;2023-08-17T08:26:24;18.00;99.90
54431;DHT22;40342;52.998;5.862;2023-08-17T08:28:50;18.10;99.90
54431;DHT22;40342;52.998;5.862;2023-08-17T08:31:15;18.20;99.90
54431;DHT22;40342;52.998;5.862;2023-08-17T08:33:41;18.40;99.90
54431;DHT22;40342;52.998;5.862;2023-08-17T08:36:06;18.40;99.90
54431;DHT22;40342;52.998;5.862;2023-08-17T08:38:32;18.50;99.90
54431;DHT22;40342;52.998;5.862;2023-08-17T08:40:58;18.60;99.90
54431;DHT22;40342;52.998;5.862;2023-08-17T08:43:24;18.70;99.90
54431;DHT22;40342;52.998;5.862;2023-08-17T08:45:51;18.80;99.90
54431;DHT22;40342;52.998;5.862;2023-08-17T08:48:18;18.80;99.90
54431;DHT22;40342;52.998;5.862;2023-08-17T08:50:45;18.90;99.90
54431;DHT22;40342;52.998;5.862;2023-08-17T08:53:15;18.90;99.90
54431;DHT22;40342;52.998;5.862;2023-08-17T08:56:07;19.00;99.90
54431;DHT22;40342;52.998;5.862;2023-08-17T08:58:36;19.10;99.90
54431;DHT22;40342;52.998;5.862;2023-08-17T09:01:02;19.10;99.90
54431;DHT22;40342;52.998;5.862;2023-08-17T09:03:30;19.20;99.90
54431;DHT22;40342;52.998;5.862;2023-08-17T09:05:57;19.20;99.90
54431;DHT22;40342;52.998;5.862;2023-08-17T09:08:27;19.30;99.90
54431;DHT22;40342;52.998;5.862;2023-08-17T09:10:54;19.30;99.90
54431;DHT22;40342;52.998;5.862;2023-08-17T09:13:20;19.30;99.90
54431;DHT22;40342;52.998;5.862;2023-08-17T09:15:45;19.40;99.90
54431;DHT22;40342;52.998;5.862;2023-08-17T09:18:11;19.50;99.90
54431;DHT22;40342;52.998;5.862;2023-08-17T09:20:42;19.60;99.90
54431;DHT22;40342;52.998;5.862;2023-08-17T09:23:21;19.60;99.90
54431;DHT22;40342;52.998;5.862;2023-08-17T09:25:48;19.70;99.90
54431;DHT22;40342;52.998;5.862;2023-08-17T09:28:16;19.80;99.90
54431;DHT22;40342;52.998;5.862;2023-08-17T09:31:02;19.80;99.90
54431;DHT22;40342;52.998;5.862;2023-08-17T09:33:30;20.00;99.90
54431;DHT22;40342;52.998;5.862;2023-08-17T09:35:57;20.00;99.90
54431;DHT22;40342;52.998;5.862;2023-08-17T09:38:24;20.10;99.90
54431;DHT22;40342;52.998;5.862;2023-08-17T09:40:50;20.30;99.90
54431;DHT22;40342;52.998;5.862;2023-08-17T09:43:16;20.40;99.90
54431;DHT22;40342;52.998;5.862;2023-08-17T09:45:45;20.50;99.90
54431;DHT22;40342;52.998;5.862;2023-08-17T09:48:18;20.60;99.90
54431;DHT22;40342;52.998;5.862;2023-08-17T09:50:44;20.60;99.90
54431;DHT22;40342;52.998;5.862;2023-08-17T09:53:19;20.60;99.90
54431;DHT22;40342;52.998;5.862;2023-08-17T09:55:45;20.60;99.90
54431;DHT22;40342;52.998;5.862;2023-08-17T09:58:14;20.70;99.90
54431;DHT22;40342;52.998;5.862;2023-08-17T10:00:45;20.80;99.90
54431;DHT22;40342;52.998;5.862;2023-08-17T10:03:14;20.90;99.90
54431;DHT22;40342;52.998;5.862;2023-08-17T10:05:40;20.90;99.90
54431;DHT22;40342;52.998;5.862;2023-08-17T10:08:07;20.90;99.90
54431;DHT22;40342;52.998;5.862;2023-08-17T10:10:38;20.90;99.90
54431;DHT22;40342;52.998;5.862;2023-08-17T10:13:08;20.90;99.90
54431;DHT22;40342;52.998;5.862;2023-08-17T10:15:37;20.80;99.90
54431;DHT22;40342;52.998;5.862;2023-08-17T10:18:21;20.90;99.90
54431;DHT22;40342;52.998;5.862;2023-08-17T10:21:01;21.20;99.90
54431;DHT22;40342;52.998;5.862;2023-08-17T10:23:28;21.40;99.90
54431;DHT22;40342;52.998;5.862;2023-08-17T10:25:54;21.60;99.90
54431;DHT22;40342;52.998;5.862;2023-08-17T10:28:23;21.80;99.90
54431;DHT22;40342;52.998;5.862;2023-08-17T10:30:49;21.90;99.90
54431;DHT22;40342;52.998;5.862;2023-08-17T10:33:16;22.00;99.90
54431;DHT22;40342;52.998;5.862;2023-08-17T10:35:43;22.10;99.90
54431;DHT22;40342;52.998;5.862;2023-08-17T10:38:10;22.00;99.90
54431;DHT22;40342;52.998;5.862;2023-08-17T10:40:37;21.90;99.90
54431;DHT22;40342;52.998;5.862;2023-08-17T10:43:04;21.90;99.90
54431;DHT22;40342;52.998;5.862;2023-08-17T10:45:33;21.80;99.90
54431;DHT22;40342;52.998;5.862;2023-08-17T10:50:32;21.90;99.90
54431;DHT22;40342;52.998;5.862;2023-08-17T10:53:10;22.00;99.90
54431;DHT22;40342;52.998;5.862;2023-08-17T10:55:39;22.10;99.90
54431;DHT22;40342;52.998;5.862;2023-08-17T10:58:08;22.30;99.90
54431;DHT22;40342;52.998;5.862;2023-08-17T11:00:35;22.40;99.90
54431;DHT22;40342;52.998;5.862;2023-08-17T11:03:05;22.50;99.90
54431;DHT22;40342;52.998;5.862;2023-08-17T11:08:05;22.60;99.90
54431;DHT22;40342;52.998;5.862;2023-08-17T11:10:31;22.60;99.90
54431;DHT22;40342;52.998;5.862;2023-08-17T11:12:59;22.70;99.90
54431;DHT22;40342;52.998;5.862;2023-08-17T11:15:28;22.80;99.90
54431;DHT22;40342;52.998;5.862;2023-08-17T11:18:00;23.00;99.90
54431;DHT22;40342;52.998;5.862;2023-08-17T11:20:26;23.00;99.90
54431;DHT22;40342;52.998;5.862;2023-08-17T11:22:51;23.20;99.90
54431;DHT22;40342;52.998;5.862;2023-08-17T11:25:17;23.20;99.90
54431;DHT22;40342;52.998;5.862;2023-08-17T11:27:43;23.30;99.90
54431;DHT22;40342;52.998;5.862;2023-08-17T11:30:09;23.20;99.90
54431;DHT22;40342;52.998;5.862;2023-08-17T11:32:35;23.10;99.90
54431;DHT22;40342;52.998;5.862;2023-08-17T11:35:01;23.00;99.90
54431;DHT22;40342;52.998;5.862;2023-08-17T11:37:26;22.90;99.90
54431;DHT22;40342;52.998;5.862;2023-08-17T11:39:52;22.80;99.90
54431;DHT22;40342;52.998;5.862;2023-08-17T11:42:17;22.80;99.90
54431;DHT22;40342;52.998;5.862;2023-08-17T11:44:43;22.70;99.90
54431;DHT22;40342;52.998;5.862;2023-08-17T11:47:09;22.70;99.90
54431;DHT22;40342;52.998;5.862;2023-08-17T11:49:36;22.70;99.90
54431;DHT22;40342;52.998;5.862;2023-08-17T11:52:01;22.70;99.90
54431;DHT22;40342;52.998;5.862;2023-08-17T11:54:27;22.70;99.90
54431;DHT22;40342;52.998;5.862;2023-08-17T11:56:52;22.80;99.90
54431;DHT22;40342;52.998;5.862;2023-08-17T11:59:19;23.00;99.90
54431;DHT22;40342;52.998;5.862;2023-08-17T12:01:45;23.10;99.90
54431;DHT22;40342;52.998;5.862;2023-08-17T12:04:11;23.20;99.90
54431;DHT22;40342;52.998;5.862;2023-08-17T12:06:43;23.30;99.90
54431;DHT22;40342;52.998;5.862;2023-08-17T12:09:08;23.30;99.90
54431;DHT22;40342;52.998;5.862;2023-08-17T12:11:34;23.40;99.90
54431;DHT22;40342;52.998;5.862;2023-08-17T12:13:59;23.40;99.90
54431;DHT22;40342;52.998;5.862;2023-08-17T12:16:33;23.50;99.90
54431;DHT22;40342;52.998;5.862;2023-08-17T12:18:58;23.50;99.90
54431;DHT22;40342;52.998;5.862;2023-08-17T12:21:24;23.40;99.90
54431;DHT22;40342;52.998;5.862;2023-08-17T12:23:51;23.30;99.90
54431;DHT22;40342;52.998;5.862;2023-08-17T12:26:20;23.20;99.90
54431;DHT22;40342;52.998;5.862;2023-08-17T12:28:46;23.20;99.90
54431;DHT22;40342;52.998;5.862;2023-08-17T12:31:12;23.10;99.90
54431;DHT22;40342;52.998;5.862;2023-08-17T12:33:37;23.00;99.90
54431;DHT22;40342;52.998;5.862;2023-08-17T12:36:03;22.90;99.90
54431;DHT22;40342;52.998;5.862;2023-08-17T12:38:29;22.90;99.90
54431;DHT22;40342;52.998;5.862;2023-08-17T12:40:55;22.70;99.90
54431;DHT22;40342;52.998;5.862;2023-08-17T12:43:20;22.70;99.90
54431;DHT22;40342;52.998;5.862;2023-08-17T12:45:46;22.70;99.90
54431;DHT22;40342;52.998;5.862;2023-08-17T12:48:12;22.60;99.90
54431;DHT22;40342;52.998;5.862;2023-08-17T12:50:37;22.50;99.90
54431;DHT22;40342;52.998;5.862;2023-08-17T12:53:03;22.50;99.90
54431;DHT22;40342;52.998;5.862;2023-08-17T12:55:29;22.40;99.90
54431;DHT22;40342;52.998;5.862;2023-08-17T12:57:54;22.30;99.90
54431;DHT22;40342;52.998;5.862;2023-08-17T13:00:20;22.30;99.90
54431;DHT22;40342;52.998;5.862;2023-08-17T13:02:45;22.20;99.90
54431;DHT22;40342;52.998;5.862;2023-08-17T13:05:14;22.10;99.90
54431;DHT22;40342;52.998;5.862;2023-08-17T13:07:40;22.00;99.90
54431;DHT22;40342;52.998;5.862;2023-08-17T13:10:05;22.00;99.90
54431;DHT22;40342;52.998;5.862;2023-08-17T13:12:31;21.90;99.90
54431;DHT22;40342;52.998;5.862;2023-08-17T13:14:57;21.80;99.90
54431;DHT22;40342;52.998;5.862;2023-08-17T13:17:22;21.80;99.90
54431;DHT22;40342;52.998;5.862;2023-08-17T13:19:48;21.80;99.90
54431;DHT22;40342;52.998;5.862;2023-08-17T13:22:13;21.70;99.90
54431;DHT22;40342;52.998;5.862;2023-08-17T13:24:39;21.70;99.90
54431;DHT22;40342;52.998;5.862;2023-08-17T13:27:05;21.60;99.90
54431;DHT22;40342;52.998;5.862;2023-08-17T13:29:31;21.60;99.90
54431;DHT22;40342;52.998;5.862;2023-08-17T13:31:56;21.90;99.90
54431;DHT22;40342;52.998;5.862;2023-08-17T13:34:22;21.60;99.90
54431;DHT22;40342;52.998;5.862;2023-08-17T13:36:47;21.60;99.90
54431;DHT22;40342;52.998;5.862;2023-08-17T13:39:13;21.60;99.90
54431;DHT22;40342;52.998;5.862;2023-08-17T13:41:38;21.60;99.90
54431;DHT22;40342;52.998;5.862;2023-08-17T13:44:06;21.60;99.90
54431;DHT22;40342;52.998;5.862;2023-08-17T13:46:31;21.50;99.90
54431;DHT22;40342;52.998;5.862;2023-08-17T13:48:57;21.50;99.90
54431;DHT22;40342;52.998;5.862;2023-08-17T13:51:22;21.50;99.90
54431;DHT22;40342;52.998;5.862;2023-08-17T13:53:48;21.50;99.90
54431;DHT22;40342;52.998;5.862;2023-08-17T13:56:14;21.40;99.90
54431;DHT22;40342;52.998;5.862;2023-08-17T13:58:39;21.40;99.90
54431;DHT22;40342;52.998;5.862;2023-08-17T14:01:05;21.40;99.90
54431;DHT22;40342;52.998;5.862;2023-08-17T14:03:31;21.30;99.90
54431;DHT22;40342;52.998;5.862;2023-08-17T14:05:56;21.30;99.90
54431;DHT22;40342;52.998;5.862;2023-08-17T14:08:22;21.30;99.90
54431;DHT22;40342;52.998;5.862;2023-08-17T14:10:47;21.30;99.90
54431;DHT22;40342;52.998;5.862;2023-08-17T14:13:16;21.30;99.90
54431;DHT22;40342;52.998;5.862;2023-08-17T14:15:41;21.20;99.90
54431;DHT22;40342;52.998;5.862;2023-08-17T14:18:07;21.30;99.90
54431;DHT22;40342;52.998;5.862;2023-08-17T14:20:33;21.30;99.90
54431;DHT22;40342;52.998;5.862;2023-08-17T14:22:58;21.20;99.90
54431;DHT22;40342;52.998;5.862;2023-08-17T14:25:24;21.20;99.90
54431;DHT22;40342;52.998;5.862;2023-08-17T14:27:49;21.20;99.90
54431;DHT22;40342;52.998;5.862;2023-08-17T14:30:15;21.20;99.90
54431;DHT22;40342;52.998;5.862;2023-08-17T14:32:40;21.20;99.90
54431;DHT22;40342;52.998;5.862;2023-08-17T14:35:06;21.20;99.90
54431;DHT22;40342;52.998;5.862;2023-08-17T14:37:32;21.30;99.90
54431;DHT22;40342;52.998;5.862;2023-08-17T14:39:58;21.20;99.90
54431;DHT22;40342;52.998;5.862;2023-08-17T14:42:23;21.20;99.90
54431;DHT22;40342;52.998;5.862;2023-08-17T14:44:49;21.20;99.90
54431;DHT22;40342;52.998;5.862;2023-08-17T14:47:14;21.10;99.90
54431;DHT22;40342;52.998;5.862;2023-08-17T14:49:40;21.10;99.90
54431;DHT22;40342;52.998;5.862;2023-08-17T14:52:06;21.00;99.90
54431;DHT22;40342;52.998;5.862;2023-08-17T14:54:31;20.90;99.90
54431;DHT22;40342;52.998;5.862;2023-08-17T14:56:57;20.90;99.90
54431;DHT22;40342;52.998;5.862;2023-08-17T14:59:24;20.80;99.90
54431;DHT22;40342;52.998;5.862;2023-08-17T15:01:49;20.70;99.90
54431;DHT22;40342;52.998;5.862;2023-08-17T15:04:17;20.70;99.90
54431;DHT22;40342;52.998;5.862;2023-08-17T15:06:43;20.70;99.90
54431;DHT22;40342;52.998;5.862;2023-08-17T15:09:08;20.60;99.90
54431;DHT22;40342;52.998;5.862;2023-08-17T15:11:35;20.60;99.90
54431;DHT22;40342;52.998;5.862;2023-08-17T15:14:01;20.60;99.90
54431;DHT22;40342;52.998;5.862;2023-08-17T15:16:26;20.50;99.90
54431;DHT22;40342;52.998;5.862;2023-08-17T15:18:53;20.50;99.90
54431;DHT22;40342;52.998;5.862;2023-08-17T15:21:19;20.50;99.90
54431;DHT22;40342;52.998;5.862;2023-08-17T15:23:44;20.50;99.90
54431;DHT22;40342;52.998;5.862;2023-08-17T15:26:10;20.50;99.90
54431;DHT22;40342;52.998;5.862;2023-08-17T15:28:36;20.50;99.90
54431;DHT22;40342;52.998;5.862;2023-08-17T15:31:03;20.40;99.90
54431;DHT22;40342;52.998;5.862;2023-08-17T15:33:29;20.50;99.90